Overview Statistics Trail Chart Weather Telemetry Raw packets
 

This is the latest recevied weather packets stored in our database for station/object ENRA. If no packets are shown the sender has not sent any weather packets the latest 10 day(s).

<< 13 14 15 16 17 18 19 >>
Time Temp. Humidity Pressure Rain* Wind** Luminosity Snow
1787976187 15.56° C 58% 1009 hPa - - - -
1787974386 15.56° C 58% 1010 hPa - - - -
1787972586 15.56° C 58% 1010 hPa - - - -
1787970786 15.56° C 63% 1010 hPa - - - -
1787968987 15.56° C 63% 1011 hPa - - - -
1787967186 15.56° C 63% 1011 hPa - - - -
1787963586 15.56° C 67% 1012 hPa - - - -
1787961786 16.67° C 59% 1012 hPa - - - -
1787959986 16.67° C 59% 1012 hPa - - - -
1787958186 16.67° C 59% 1012 hPa - - - -
1787956386 15.56° C 67% 1013 hPa - - - -
1787954586 13.89° C 76% 1013 hPa - - - -
1787952786 15° C 72% 1013 hPa - - - -
1787950986 13.89° C 76% 1013 hPa - - - -
1787949186 13.89° C 82% 1013 hPa - - - -
1787947402 17.78° C 59% 1013 hPa - - - -
1787945602 16.67° C 63% 1014 hPa - - - -
1787943786 18.89° C 55% 1014 hPa - - - -
1787941987 18.89° C 55% 1014 hPa - - - -
1787940187 20° C 52% 1014 hPa - - - -
1787938388 20° C 52% 1014 hPa - - - -
1787936588 20° C 56% 1014 hPa - - - -
1787934788 20° C 56% 1015 hPa - - - -
1787932989 20° C 56% 1015 hPa - - - -
1787931188 20° C 52% 1015 hPa - - - -

* Rain since midnight (hover to see other rain measurements)
** Current wind speed in m/s (hover to see current wind gust speed)